createdAt,value
2018-12-01T00:01:30.594Z,25.13
2018-12-01T00:03:58.825Z,23.90
2018-12-01T00:06:27.027Z,29.63
2018-12-01T00:08:55.318Z,27.63
2018-12-01T00:11:23.501Z,29.00
2018-12-01T00:13:51.707Z,27.47
2018-12-01T00:16:19.907Z,25.83
2018-12-01T00:18:48.054Z,20.93
2018-12-01T00:21:16.271Z,24.07
2018-12-01T00:23:44.465Z,24.27
2018-12-01T00:26:12.626Z,25.30
2018-12-01T00:28:40.820Z,25.27
2018-12-01T00:31:09.685Z,24.03
2018-12-01T00:33:37.840Z,24.00
2018-12-01T00:36:06.057Z,25.40
2018-12-01T00:38:39.804Z,24.83
2018-12-01T00:41:13.779Z,22.03
2018-12-01T00:43:41.994Z,23.90
2018-12-01T00:46:10.255Z,23.80
2018-12-01T00:48:38.434Z,24.70
2018-12-01T00:51:06.765Z,22.63
2018-12-01T00:53:34.957Z,24.67
2018-12-01T00:56:03.164Z,24.40
2018-12-01T00:58:31.337Z,25.50
2018-12-01T01:00:59.505Z,26.03
2018-12-01T01:03:27.668Z,25.23
2018-12-01T01:05:55.840Z,26.50
2018-12-01T01:08:23.989Z,27.43
2018-12-01T01:10:52.148Z,26.90
2018-12-01T01:13:20.374Z,23.73
2018-12-01T01:15:48.566Z,28.17
2018-12-01T01:18:16.813Z,26.50
2018-12-01T01:20:44.982Z,27.73
2018-12-01T01:23:13.161Z,24.93
2018-12-01T01:25:42.389Z,22.93
2018-12-01T01:28:10.560Z,25.70
2018-12-01T01:30:38.735Z,22.67
2018-12-01T01:33:19.278Z,24.07
2018-12-01T01:35:47.493Z,24.97
2018-12-01T01:38:15.653Z,25.53
2018-12-01T01:40:43.835Z,23.20
2018-12-01T01:43:12.016Z,22.53
2018-12-01T01:45:41.295Z,25.77
2018-12-01T01:48:09.504Z,27.00
2018-12-01T01:50:37.670Z,29.70
2018-12-01T01:53:05.865Z,24.30
2018-12-01T01:55:34.048Z,22.63
2018-12-01T01:58:02.253Z,29.20
2018-12-01T02:00:30.461Z,27.53
2018-12-01T02:02:58.781Z,26.43
2018-12-01T02:05:26.958Z,24.30
2018-12-01T02:07:55.154Z,21.43
2018-12-01T02:10:23.769Z,21.47
2018-12-01T02:12:51.945Z,27.73
2018-12-01T02:15:20.118Z,29.67
2018-12-01T02:17:48.291Z,30.33
2018-12-01T02:20:17.192Z,32.00
2018-12-01T02:22:45.458Z,30.67
2018-12-01T02:25:16.510Z,29.40
2018-12-01T02:27:44.888Z,31.70
2018-12-01T02:30:14.059Z,28.10
2018-12-01T02:32:42.237Z,36.93
2018-12-01T02:35:13.664Z,32.63
2018-12-01T02:37:41.856Z,29.57
2018-12-01T02:40:11.938Z,30.23
2018-12-01T02:42:40.406Z,36.87
2018-12-01T02:45:20.014Z,37.00
2018-12-01T02:47:48.196Z,32.83
2018-12-01T02:50:20.528Z,36.97
2018-12-01T02:52:48.817Z,31.77
2018-12-01T02:55:17.007Z,29.83
2018-12-01T02:57:45.213Z,34.67
2018-12-01T03:00:13.373Z,33.63
2018-12-01T03:02:41.523Z,36.10
2018-12-01T03:05:12.936Z,37.67
2018-12-01T03:07:41.366Z,35.63
2018-12-01T03:10:14.096Z,39.00
2018-12-01T03:12:42.269Z,37.47
2018-12-01T03:15:14.063Z,37.90
2018-12-01T03:17:42.247Z,40.73
2018-12-01T03:20:11.734Z,38.73
2018-12-01T03:22:39.929Z,36.60
2018-12-01T03:25:09.227Z,42.67
2018-12-01T03:27:37.549Z,33.77
2018-12-01T03:30:12.508Z,39.47
2018-12-01T03:32:40.753Z,43.63
2018-12-01T03:35:13.316Z,34.33
2018-12-01T03:37:42.554Z,36.80
2018-12-01T03:40:11.305Z,35.13
2018-12-01T03:42:39.492Z,37.23
2018-12-01T03:45:11.943Z,33.13
2018-12-01T03:47:40.245Z,37.17
2018-12-01T03:50:09.747Z,45.23
2018-12-01T03:52:38.043Z,42.10
2018-12-01T03:55:27.118Z,48.40
2018-12-01T03:57:55.273Z,45.77
2018-12-01T04:00:26.475Z,44.93
2018-12-01T04:02:55.385Z,42.70
2018-12-01T04:05:23.662Z,47.13
2018-12-01T04:07:51.898Z,44.27
2018-12-01T04:10:20.074Z,36.13
2018-12-01T04:12:48.242Z,38.70
2018-12-01T04:15:16.401Z,38.70
2018-12-01T04:17:44.634Z,43.67
2018-12-01T04:20:12.812Z,48.03
2018-12-01T04:22:40.989Z,41.07
2018-12-01T04:25:09.701Z,43.53
2018-12-01T04:27:38.438Z,44.87
2018-12-01T04:30:23.301Z,40.23
2018-12-01T04:32:51.504Z,41.00
2018-12-01T04:35:21.378Z,43.10
2018-12-01T04:37:50.307Z,44.43
2018-12-01T04:40:18.482Z,55.63
2018-12-01T04:42:47.302Z,55.10
2018-12-01T04:45:15.552Z,49.10
2018-12-01T04:47:43.841Z,52.03
2018-12-01T04:50:16.062Z,50.67
2018-12-01T04:52:44.741Z,60.37
2018-12-01T04:55:14.917Z,61.43
2018-12-01T04:57:43.105Z,52.03
2018-12-01T05:00:14.405Z,74.33
2018-12-01T05:02:42.609Z,71.97
2018-12-01T05:05:13.910Z,67.60
2018-12-01T05:08:13.613Z,71.13
2018-12-01T05:10:52.259Z,71.80
2018-12-01T05:13:20.519Z,72.37
2018-12-01T05:15:48.811Z,70.03
2018-12-01T05:18:17.151Z,66.87
2018-12-01T05:20:45.323Z,72.63
2018-12-01T05:23:13.496Z,68.93
2018-12-01T05:25:41.716Z,70.20
2018-12-01T05:28:11.260Z,75.80
2018-12-01T05:30:39.677Z,67.83
2018-12-01T05:33:07.866Z,68.07
2018-12-01T05:35:43.160Z,72.33
2018-12-01T05:38:11.667Z,66.37
2018-12-01T05:40:40.399Z,71.43
2018-12-01T05:43:08.585Z,70.57
2018-12-01T05:45:36.729Z,71.87
2018-12-01T05:48:04.986Z,66.17
2018-12-01T05:50:33.229Z,66.80
2018-12-01T05:53:01.402Z,67.33
2018-12-01T05:55:29.602Z,63.53
2018-12-01T05:57:57.748Z,62.67
2018-12-01T06:00:25.901Z,63.63
2018-12-01T06:02:54.137Z,58.40
2018-12-01T06:05:22.374Z,63.07
2018-12-01T06:07:50.574Z,69.87
2018-12-01T06:10:19.762Z,66.27
2018-12-01T06:12:48.672Z,62.43
2018-12-01T06:15:17.541Z,61.27
2018-12-01T06:17:45.694Z,57.30
2018-12-01T06:20:16.045Z,57.63
2018-12-01T06:22:44.363Z,60.93
2018-12-01T06:25:13.712Z,61.47
2018-12-01T06:27:41.954Z,58.13
2018-12-01T06:30:12.511Z,57.30
2018-12-01T06:32:40.765Z,67.97
2018-12-01T06:35:08.989Z,64.20
2018-12-01T06:37:37.318Z,61.83
2018-12-01T06:40:08.310Z,64.87
2018-12-01T06:42:36.684Z,69.60
2018-12-01T06:45:06.540Z,75.43
2018-12-01T06:47:34.712Z,70.03
2018-12-01T06:50:03.322Z,63.47
2018-12-01T06:52:31.541Z,73.83
2018-12-01T06:55:00.349Z,71.03
2018-12-01T06:57:28.564Z,64.37
2018-12-01T06:59:56.853Z,70.57
2018-12-01T07:02:25.173Z,69.80
2018-12-01T07:04:53.842Z,69.47
2018-12-01T07:07:22.470Z,72.33
2018-12-01T07:09:50.751Z,74.20
2018-12-01T07:12:19.559Z,79.00
2018-12-01T07:14:47.764Z,76.13
2018-12-01T07:17:16.162Z,66.97
2018-12-01T07:19:44.676Z,70.40
2018-12-01T07:22:13.018Z,70.63
2018-12-01T07:24:41.370Z,62.67
2018-12-01T07:27:09.630Z,67.10
2018-12-01T07:29:37.809Z,69.00
2018-12-01T07:32:08.291Z,60.87
2018-12-01T07:34:38.059Z,81.10
2018-12-01T07:37:07.882Z,75.27
2018-12-01T07:39:36.035Z,69.17
2018-12-01T07:42:04.262Z,76.27
2018-12-01T07:44:32.599Z,75.03
2018-12-01T07:47:00.747Z,63.07
2018-12-01T07:49:28.937Z,70.20
2018-12-01T07:51:57.150Z,63.80
2018-12-01T07:54:25.331Z,58.20
2018-12-01T07:56:53.569Z,63.30
2018-12-01T07:59:22.320Z,67.63
2018-12-01T08:01:50.566Z,58.40
2018-12-01T08:04:18.756Z,69.80
2018-12-01T08:06:46.929Z,58.77
2018-12-01T08:09:15.163Z,58.00
2018-12-01T08:11:43.400Z,55.10
2018-12-01T08:14:11.589Z,59.30
2018-12-01T08:16:40.048Z,59.80
2018-12-01T08:19:08.285Z,56.67
2018-12-01T08:21:36.608Z,46.10
2018-12-01T08:24:05.584Z,47.10
2018-12-01T08:26:33.774Z,50.53
2018-12-01T08:29:01.993Z,49.13
2018-12-01T08:31:30.185Z,52.93
2018-12-01T08:33:58.397Z,48.87
2018-12-01T08:36:26.971Z,52.23
2018-12-01T08:38:55.146Z,39.67
2018-12-01T08:41:23.367Z,43.33
2018-12-01T08:43:51.714Z,39.33
2018-12-01T08:46:19.926Z,38.33
2018-12-01T08:48:48.187Z,38.13
2018-12-01T08:51:16.337Z,30.23
2018-12-01T08:53:44.479Z,38.93
2018-12-01T08:56:12.666Z,39.13
2018-12-01T08:58:40.862Z,39.67
2018-12-01T09:01:09.009Z,36.33
2018-12-01T09:03:37.197Z,42.13
2018-12-01T09:06:05.446Z,37.10
2018-12-01T09:08:33.651Z,40.73
2018-12-01T09:11:01.881Z,31.97
2018-12-01T09:13:30.128Z,33.00
2018-12-01T09:15:58.570Z,35.13
2018-12-01T09:18:26.769Z,31.87
2018-12-01T09:20:55.026Z,34.40
2018-12-01T09:23:23.818Z,32.80
2018-12-01T09:25:52.047Z,34.30
2018-12-01T09:28:20.201Z,34.93
2018-12-01T09:30:48.370Z,30.87
2018-12-01T09:36:19.439Z,30.00
2018-12-01T09:38:47.683Z,33.40
2018-12-01T09:41:15.862Z,27.43
2018-12-01T09:43:44.023Z,33.77
2018-12-01T09:46:12.223Z,34.90
2018-12-01T09:48:40.844Z,33.53
2018-12-01T09:51:09.050Z,38.30
2018-12-01T09:53:37.218Z,32.57
2018-12-01T09:56:05.731Z,35.63
2018-12-01T09:58:34.186Z,30.67
2018-12-01T10:01:02.750Z,34.40
2018-12-01T10:03:30.849Z,33.30
2018-12-01T10:05:59.153Z,31.40
2018-12-01T10:08:29.002Z,34.30
2018-12-01T10:11:08.726Z,27.57
2018-12-01T10:13:37.229Z,33.27
2018-12-01T10:16:06.611Z,31.23
2018-12-01T10:18:39.443Z,35.40
2018-12-01T10:21:14.127Z,37.73
2018-12-01T10:41:14.765Z,31.83
2018-12-01T10:43:42.996Z,31.30
2018-12-01T10:46:11.397Z,31.90
2018-12-01T10:48:39.628Z,29.13
2018-12-01T10:51:07.803Z,30.40
2018-12-01T10:53:36.097Z,32.00
2018-12-01T10:56:04.421Z,28.60
2018-12-01T10:58:33.120Z,32.00
2018-12-01T11:01:06.553Z,25.67
2018-12-01T11:03:39.849Z,26.43
2018-12-01T11:06:13.734Z,25.97
2018-12-01T11:08:41.940Z,22.90
2018-12-01T11:11:10.129Z,26.33
2018-12-01T11:13:38.297Z,25.17
2018-12-01T11:16:07.340Z,25.60
2018-12-01T11:18:35.620Z,27.07
2018-12-01T11:21:14.665Z,28.33
2018-12-01T11:23:42.863Z,24.43
2018-12-01T11:26:11.065Z,25.83
2018-12-01T11:28:39.985Z,24.97
2018-12-01T11:31:08.268Z,31.90
2018-12-01T11:33:36.608Z,26.53
2018-12-01T11:36:04.833Z,27.27
2018-12-01T11:38:32.977Z,27.40
2018-12-01T11:41:01.136Z,26.73
2018-12-01T11:43:29.338Z,29.93
2018-12-01T11:45:57.498Z,28.23
2018-12-01T11:48:25.717Z,30.73
2018-12-01T11:50:57.182Z,30.13
2018-12-01T11:53:25.461Z,27.43
2018-12-01T11:55:53.808Z,29.50
2018-12-01T11:58:22.124Z,23.47
2018-12-01T12:00:50.430Z,27.93
2018-12-01T12:03:18.624Z,26.77
2018-12-01T12:05:47.189Z,21.77
2018-12-01T12:08:18.097Z,23.80
2018-12-01T12:10:46.330Z,29.30
2018-12-01T12:13:14.784Z,29.10
2018-12-01T12:15:43.012Z,21.47
2018-12-01T12:18:11.292Z,27.60
2018-12-01T12:20:39.532Z,27.33
2018-12-01T12:23:08.110Z,24.97
2018-12-01T12:25:36.290Z,22.90
2018-12-01T12:28:04.644Z,29.50
2018-12-01T12:30:32.855Z,24.23
2018-12-01T12:33:01.177Z,27.33
2018-12-01T12:35:29.485Z,24.90
2018-12-01T12:37:57.819Z,29.13
2018-12-01T12:40:26.632Z,22.17
2018-12-01T12:42:56.925Z,26.00
2018-12-01T12:45:25.263Z,21.90
2018-12-01T12:47:53.501Z,22.37
2018-12-01T12:50:21.754Z,25.27
2018-12-01T12:53:06.833Z,24.13
2018-12-01T12:55:54.341Z,27.43
2018-12-01T12:58:27.583Z,26.03
2018-12-01T13:00:55.829Z,21.17
2018-12-01T13:03:25.755Z,19.13
2018-12-01T13:05:53.977Z,23.67
2018-12-01T13:08:22.644Z,27.27
2018-12-01T13:10:50.841Z,22.70
2018-12-01T13:13:19.377Z,25.30
2018-12-01T13:15:47.746Z,22.27
2018-12-01T13:18:15.970Z,22.90
2018-12-01T13:20:46.789Z,26.80
2018-12-01T13:23:15.112Z,24.17
2018-12-01T13:25:43.774Z,26.57
2018-12-01T13:31:01.210Z,25.47
2018-12-01T13:33:41.804Z,21.43
2018-12-01T13:36:12.390Z,23.00
2018-12-01T13:38:43.674Z,21.67
2018-12-01T13:41:16.136Z,24.63
2018-12-01T13:43:44.588Z,23.90
2018-12-01T13:46:13.778Z,23.93
2018-12-01T13:48:42.665Z,23.10
2018-12-01T13:51:18.215Z,24.47
2018-12-01T13:53:46.444Z,20.50
2018-12-01T13:56:20.904Z,19.97
2018-12-01T14:01:38.628Z,22.53
2018-12-01T14:04:14.125Z,24.77
2018-12-01T14:06:42.557Z,20.13
2018-12-01T14:09:22.518Z,20.47
2018-12-01T14:11:58.407Z,19.23
2018-12-01T14:14:29.352Z,21.50
2018-12-01T14:17:00.620Z,24.60
2018-12-01T14:19:34.351Z,21.20
2018-12-01T14:22:07.962Z,21.43
2018-12-01T14:24:42.013Z,24.73
2018-12-01T14:27:10.356Z,25.90
2018-12-01T14:29:38.660Z,23.03
2018-12-01T14:32:07.927Z,25.60
2018-12-01T14:34:45.010Z,24.97
2018-12-01T14:37:17.417Z,22.47
2018-12-01T14:40:00.439Z,24.60
2018-12-01T14:42:29.439Z,21.23
2018-12-01T14:44:58.077Z,20.70
2018-12-01T14:47:29.499Z,16.90
2018-12-01T14:49:57.800Z,15.53
2018-12-01T14:52:26.140Z,20.77
2018-12-01T14:57:46.443Z,17.70
2018-12-01T15:00:18.688Z,19.83
2018-12-01T15:02:47.255Z,17.23
2018-12-01T15:05:15.590Z,18.13
2018-12-01T15:07:43.798Z,14.63
2018-12-01T15:10:17.008Z,18.30
2018-12-01T15:12:48.191Z,24.13
2018-12-01T15:15:17.861Z,19.87
2018-12-01T15:17:45.977Z,21.43
2018-12-01T15:20:15.536Z,20.93
2018-12-01T15:22:44.651Z,18.77
2018-12-01T15:25:15.872Z,24.67
2018-12-01T15:27:44.084Z,17.67
2018-12-01T15:30:18.305Z,17.93
2018-12-01T15:32:55.074Z,17.03
2018-12-01T15:35:23.516Z,20.23
2018-12-01T15:37:51.794Z,15.23
2018-12-01T15:40:20.285Z,17.43
2018-12-01T15:42:49.619Z,19.83
2018-12-01T15:45:19.988Z,17.20
2018-12-01T15:47:48.165Z,23.40
2018-12-01T15:50:17.279Z,24.27
2018-12-01T15:52:48.248Z,21.93
2018-12-01T15:55:23.768Z,19.03
2018-12-01T15:57:52.175Z,18.73
2018-12-01T16:00:21.205Z,22.07
2018-12-01T16:02:49.526Z,18.40
2018-12-01T16:05:18.910Z,16.50
2018-12-01T16:07:47.899Z,19.50
2018-12-01T16:10:17.659Z,18.53
2018-12-01T16:12:46.976Z,16.73
2018-12-01T16:15:23.232Z,22.13
2018-12-01T16:17:51.469Z,20.17
2018-12-01T16:20:19.851Z,22.30
2018-12-01T16:22:48.516Z,15.27
2018-12-01T16:25:19.240Z,23.80
2018-12-01T16:27:48.616Z,17.37
2018-12-01T16:30:36.008Z,17.23
2018-12-01T16:33:07.418Z,15.37
2018-12-01T16:35:36.191Z,16.07
2018-12-01T16:38:07.632Z,20.10
2018-12-01T16:40:54.099Z,15.93
2018-12-01T16:43:26.284Z,18.77
2018-12-01T16:45:54.625Z,15.30
2018-12-01T16:48:22.856Z,16.53
2018-12-01T16:50:51.058Z,12.80
2018-12-01T16:53:20.542Z,13.47
2018-12-01T16:55:48.738Z,15.67
2018-12-01T16:58:16.909Z,15.57
2018-12-01T17:00:45.215Z,18.27
2018-12-01T17:03:13.965Z,14.13
2018-12-01T17:05:46.100Z,16.73
2018-12-01T17:08:14.298Z,14.17
2018-12-01T17:10:42.547Z,12.37
2018-12-01T17:13:10.850Z,14.20
2018-12-01T17:15:39.101Z,14.07
2018-12-01T17:18:10.246Z,13.63
2018-12-01T17:20:38.564Z,12.83
2018-12-01T17:23:10.661Z,17.23
2018-12-01T17:25:38.912Z,13.97
2018-12-01T17:28:09.982Z,17.43
2018-12-01T17:30:38.137Z,65.37
2018-12-01T17:33:07.319Z,155.07
2018-12-01T17:35:36.025Z,22.27
2018-12-01T17:38:07.272Z,22.90
2018-12-01T17:40:54.418Z,20.47
2018-12-01T17:43:25.635Z,11.77
2018-12-01T17:45:53.957Z,16.07
2018-12-01T17:48:22.269Z,26.83
2018-12-01T17:50:50.655Z,15.20
2018-12-01T17:53:19.014Z,12.10
2018-12-01T17:55:47.308Z,24.10
2018-12-01T17:58:15.492Z,22.47
2018-12-01T18:00:43.745Z,19.33
2018-12-01T18:03:11.949Z,29.53
2018-12-01T18:05:42.819Z,22.37
2018-12-01T18:08:13.370Z,17.73
2018-12-01T18:10:41.542Z,18.57
2018-12-01T18:13:12.213Z,13.83
2018-12-01T18:15:40.821Z,15.67
2018-12-01T18:18:09.001Z,13.43
2018-12-01T18:20:37.265Z,13.53
2018-12-01T18:23:06.436Z,11.50
2018-12-01T18:25:40.012Z,16.33
2018-12-01T18:28:09.229Z,19.27
2018-12-01T18:30:46.090Z,14.57
2018-12-01T18:33:26.272Z,13.47
2018-12-01T18:36:01.822Z,13.07
2018-12-01T18:38:30.329Z,15.60
2018-12-01T18:40:58.985Z,10.70
2018-12-01T18:43:27.273Z,14.93
2018-12-01T18:45:57.969Z,10.83
2018-12-01T18:48:26.191Z,11.40
2018-12-01T18:50:54.383Z,11.33
2018-12-01T18:53:22.706Z,12.67
2018-12-01T18:55:52.674Z,18.43
2018-12-01T18:58:21.003Z,10.50
2018-12-01T19:00:52.987Z,10.60
2018-12-01T19:03:23.282Z,11.30
2018-12-01T19:05:51.709Z,11.57
2018-12-01T19:08:19.844Z,14.43
2018-12-01T19:10:48.041Z,12.87
2018-12-01T19:13:16.229Z,14.57
2018-12-01T19:15:44.556Z,13.73
2018-12-01T19:18:19.011Z,12.77
2018-12-01T19:20:47.193Z,13.47
2018-12-01T19:23:16.358Z,9.57
2018-12-01T19:25:45.910Z,13.10
2018-12-01T19:28:14.107Z,13.83
2018-12-01T19:30:42.295Z,9.23
2018-12-01T19:33:16.913Z,9.10
2018-12-01T19:35:45.820Z,9.23
2018-12-01T19:38:15.330Z,9.40
2018-12-01T19:40:44.102Z,14.37
2018-12-01T19:43:12.467Z,14.47
2018-12-01T19:45:41.486Z,9.93
2018-12-01T19:48:12.326Z,11.33
2018-12-01T19:50:41.726Z,16.30
2018-12-01T19:53:12.357Z,9.40
2018-12-01T19:55:41.628Z,10.97
2018-12-01T19:58:13.071Z,13.20
2018-12-01T20:00:43.695Z,11.03
2018-12-01T20:03:16.176Z,9.87
2018-12-01T20:05:45.293Z,11.60
2018-12-01T20:08:15.561Z,10.37
2018-12-01T20:10:55.952Z,14.07
2018-12-01T20:13:45.693Z,13.97
2018-12-01T20:17:06.000Z,14.23
2018-12-01T20:22:16.538Z,9.43
2018-12-01T20:24:44.847Z,12.83
2018-12-01T20:27:13.169Z,9.93
2018-12-01T20:29:53.639Z,12.47
2018-12-01T20:32:22.144Z,10.63
2018-12-01T20:34:50.765Z,10.30
2018-12-01T20:37:19.399Z,10.17
2018-12-01T20:39:47.938Z,12.27
2018-12-01T20:42:17.985Z,9.57
2018-12-01T20:44:47.399Z,10.43
2018-12-01T20:47:19.147Z,12.40
2018-12-01T20:49:48.604Z,10.77
2018-12-01T20:52:23.595Z,11.77
2018-12-01T20:54:51.885Z,8.60
2018-12-01T20:57:29.856Z,12.00
2018-12-01T20:59:58.129Z,12.83
2018-12-01T21:02:26.329Z,11.93
2018-12-01T21:04:55.645Z,9.07
2018-12-01T21:07:24.017Z,10.63
2018-12-01T21:09:52.287Z,10.93
2018-12-01T21:12:20.490Z,11.57
2018-12-01T21:14:48.728Z,7.57
2018-12-01T21:17:17.024Z,7.30
2018-12-01T21:19:45.206Z,10.80
2018-12-01T21:22:13.352Z,11.47
2018-12-01T21:24:41.573Z,12.63
2018-12-01T21:27:09.726Z,10.53
2018-12-01T21:29:38.002Z,10.43
2018-12-01T21:32:07.150Z,10.43
2018-12-01T21:34:35.326Z,8.20
2018-12-01T21:37:03.527Z,10.67
2018-12-01T21:39:31.787Z,10.63
2018-12-01T21:42:00.034Z,9.73
2018-12-01T21:44:28.229Z,9.13
2018-12-01T21:46:56.389Z,7.40
2018-12-01T21:49:24.554Z,9.10
2018-12-01T21:51:52.727Z,11.10
2018-12-01T21:54:21.038Z,12.37
2018-12-01T21:56:49.233Z,12.27
2018-12-01T21:59:17.410Z,11.23
2018-12-01T22:01:45.631Z,8.63
2018-12-01T22:04:13.816Z,12.00
2018-12-01T22:06:42.124Z,15.53
2018-12-01T22:09:10.355Z,9.17
2018-12-01T22:11:38.584Z,10.83
2018-12-01T22:14:07.275Z,10.47
2018-12-01T22:16:35.555Z,15.93
2018-12-01T22:19:03.697Z,14.13
2018-12-01T22:21:31.906Z,9.73
2018-12-01T22:24:00.066Z,10.60
2018-12-01T22:26:28.261Z,15.00
2018-12-01T22:28:56.468Z,9.40
2018-12-01T22:31:24.656Z,13.37
2018-12-01T22:33:52.902Z,9.67
2018-12-01T22:36:21.214Z,10.17
2018-12-01T22:38:49.509Z,12.30
2018-12-01T22:41:17.737Z,12.07
2018-12-01T22:43:45.922Z,8.47
2018-12-01T22:46:14.108Z,7.93
2018-12-01T22:48:42.359Z,10.53
2018-12-01T22:51:10.552Z,10.47
2018-12-01T22:53:38.730Z,10.13
2018-12-01T22:56:14.064Z,11.13
2018-12-01T22:58:42.230Z,13.83
2018-12-01T23:01:10.529Z,12.37
2018-12-01T23:03:41.308Z,13.67
2018-12-01T23:06:09.504Z,15.83
2018-12-01T23:08:38.057Z,10.83
2018-12-01T23:11:06.974Z,12.83
2018-12-01T23:13:35.146Z,15.30
2018-12-01T23:16:03.318Z,15.97
2018-12-01T23:18:31.496Z,13.77
2018-12-01T23:20:59.697Z,12.17
2018-12-01T23:23:27.976Z,14.63
2018-12-01T23:25:56.147Z,12.37
2018-12-01T23:28:24.412Z,13.47
2018-12-01T23:30:54.047Z,18.07
2018-12-01T23:33:26.415Z,19.10
2018-12-01T23:35:54.621Z,16.93
2018-12-01T23:38:22.774Z,16.13
2018-12-01T23:40:57.595Z,12.80
2018-12-01T23:43:25.764Z,17.73
2018-12-01T23:45:53.905Z,17.83
2018-12-01T23:48:22.094Z,18.20
2018-12-01T23:50:53.001Z,16.03
2018-12-01T23:53:21.663Z,17.03
2018-12-01T23:55:49.840Z,16.10
2018-12-01T23:58:17.989Z,19.07
